sensor_id;sensor_type;location;lat;lon;timestamp;P1;durP1;ratioP1;P2;durP2;ratioP2
38123;SDS011;23934;47.998;9.832;2023-11-19T00:02:20;5.65;;;1.85;;
38123;SDS011;23934;47.998;9.832;2023-11-19T00:04:46;4.43;;;2.05;;
38123;SDS011;23934;47.998;9.832;2023-11-19T00:07:12;3.72;;;2.20;;
38123;SDS011;23934;47.998;9.832;2023-11-19T00:09:39;4.20;;;1.75;;
38123;SDS011;23934;47.998;9.832;2023-11-19T00:12:05;5.90;;;2.30;;
38123;SDS011;23934;47.998;9.832;2023-11-19T00:14:31;6.10;;;2.05;;
38123;SDS011;23934;47.998;9.832;2023-11-19T00:16:57;8.07;;;2.67;;
38123;SDS011;23934;47.998;9.832;2023-11-19T00:19:23;6.45;;;2.50;;
38123;SDS011;23934;47.998;9.832;2023-11-19T00:21:49;5.65;;;2.50;;
38123;SDS011;23934;47.998;9.832;2023-11-19T00:24:15;6.40;;;3.50;;
38123;SDS011;23934;47.998;9.832;2023-11-19T00:26:42;7.70;;;2.45;;
38123;SDS011;23934;47.998;9.832;2023-11-19T00:29:08;7.90;;;3.33;;
38123;SDS011;23934;47.998;9.832;2023-11-19T00:31:35;6.55;;;3.33;;
38123;SDS011;23934;47.998;9.832;2023-11-19T00:34:00;9.45;;;4.00;;
38123;SDS011;23934;47.998;9.832;2023-11-19T00:36:27;8.25;;;4.28;;
38123;SDS011;23934;47.998;9.832;2023-11-19T00:38:53;7.38;;;3.45;;
38123;SDS011;23934;47.998;9.832;2023-11-19T00:41:19;11.68;;;4.60;;
38123;SDS011;23934;47.998;9.832;2023-11-19T00:43:45;3.58;;;1.67;;
38123;SDS011;23934;47.998;9.832;2023-11-19T00:46:11;8.98;;;3.65;;
38123;SDS011;23934;47.998;9.832;2023-11-19T00:48:38;7.57;;;3.38;;
38123;SDS011;23934;47.998;9.832;2023-11-19T00:51:04;10.57;;;4.03;;
38123;SDS011;23934;47.998;9.832;2023-11-19T00:53:31;5.70;;;2.67;;
38123;SDS011;23934;47.998;9.832;2023-11-19T00:55:57;6.60;;;2.83;;
38123;SDS011;23934;47.998;9.832;2023-11-19T00:58:23;7.10;;;2.90;;
38123;SDS011;23934;47.998;9.832;2023-11-19T01:00:49;4.90;;;2.20;;
38123;SDS011;23934;47.998;9.832;2023-11-19T01:03:15;6.22;;;3.30;;
38123;SDS011;23934;47.998;9.832;2023-11-19T01:05:41;6.28;;;3.28;;
38123;SDS011;23934;47.998;9.832;2023-11-19T01:08:07;7.15;;;4.13;;
38123;SDS011;23934;47.998;9.832;2023-11-19T01:10:34;7.82;;;3.33;;
38123;SDS011;23934;47.998;9.832;2023-11-19T01:13:02;7.57;;;3.85;;
38123;SDS011;23934;47.998;9.832;2023-11-19T01:15:30;17.65;;;4.18;;
38123;SDS011;23934;47.998;9.832;2023-11-19T01:17:56;9.70;;;4.20;;
38123;SDS011;23934;47.998;9.832;2023-11-19T01:20:22;7.80;;;4.20;;
38123;SDS011;23934;47.998;9.832;2023-11-19T01:22:49;7.50;;;4.15;;
38123;SDS011;23934;47.998;9.832;2023-11-19T01:25:15;9.57;;;4.72;;
38123;SDS011;23934;47.998;9.832;2023-11-19T01:27:41;5.55;;;3.10;;
38123;SDS011;23934;47.998;9.832;2023-11-19T01:30:07;11.68;;;5.65;;
38123;SDS011;23934;47.998;9.832;2023-11-19T01:32:39;10.55;;;4.53;;
38123;SDS011;23934;47.998;9.832;2023-11-19T01:35:06;10.32;;;4.43;;
38123;SDS011;23934;47.998;9.832;2023-11-19T01:37:33;10.15;;;4.07;;
38123;SDS011;23934;47.998;9.832;2023-11-19T01:39:59;5.78;;;2.88;;
38123;SDS011;23934;47.998;9.832;2023-11-19T01:42:27;13.02;;;5.55;;
38123;SDS011;23934;47.998;9.832;2023-11-19T01:45:00;9.68;;;4.13;;
38123;SDS011;23934;47.998;9.832;2023-11-19T01:47:27;10.60;;;4.85;;
38123;SDS011;23934;47.998;9.832;2023-11-19T01:49:54;9.35;;;4.95;;
38123;SDS011;23934;47.998;9.832;2023-11-19T01:52:20;7.28;;;3.03;;
38123;SDS011;23934;47.998;9.832;2023-11-19T01:54:46;9.65;;;4.00;;
38123;SDS011;23934;47.998;9.832;2023-11-19T01:57:12;14.52;;;5.00;;
38123;SDS011;23934;47.998;9.832;2023-11-19T01:59:39;13.88;;;4.75;;
38123;SDS011;23934;47.998;9.832;2023-11-19T02:02:07;15.88;;;5.95;;
38123;SDS011;23934;47.998;9.832;2023-11-19T02:04:33;9.77;;;4.75;;
38123;SDS011;23934;47.998;9.832;2023-11-19T02:07:00;9.43;;;4.47;;
38123;SDS011;23934;47.998;9.832;2023-11-19T02:09:26;8.15;;;3.63;;
38123;SDS011;23934;47.998;9.832;2023-11-19T02:11:52;11.75;;;5.03;;
38123;SDS011;23934;47.998;9.832;2023-11-19T02:14:19;15.20;;;5.05;;
38123;SDS011;23934;47.998;9.832;2023-11-19T02:16:48;9.52;;;3.97;;
38123;SDS011;23934;47.998;9.832;2023-11-19T02:19:14;9.27;;;2.75;;
38123;SDS011;23934;47.998;9.832;2023-11-19T02:21:40;14.52;;;5.03;;
38123;SDS011;23934;47.998;9.832;2023-11-19T02:24:07;9.50;;;3.40;;
38123;SDS011;23934;47.998;9.832;2023-11-19T02:26:37;0.28;;;0.28;;
38123;SDS011;23934;47.998;9.832;2023-11-19T02:29:05;13.52;;;2.35;;
38123;SDS011;23934;47.998;9.832;2023-11-19T02:31:31;0.00;;;0.00;;
38123;SDS011;23934;47.998;9.832;2023-11-19T02:33:59;0.47;;;0.47;;
38123;SDS011;23934;47.998;9.832;2023-11-19T02:36:27;0.47;;;0.47;;
38123;SDS011;23934;47.998;9.832;2023-11-19T02:38:53;0.00;;;0.00;;
38123;SDS011;23934;47.998;9.832;2023-11-19T02:41:19;0.00;;;0.00;;
38123;SDS011;23934;47.998;9.832;2023-11-19T02:43:45;0.00;;;0.00;;
38123;SDS011;23934;47.998;9.832;2023-11-19T02:46:13;0.00;;;0.00;;
38123;SDS011;23934;47.998;9.832;2023-11-19T02:48:40;0.20;;;0.20;;
38123;SDS011;23934;47.998;9.832;2023-11-19T02:51:06;0.13;;;0.13;;
38123;SDS011;23934;47.998;9.832;2023-11-19T02:53:36;0.00;;;0.00;;
38123;SDS011;23934;47.998;9.832;2023-11-19T02:56:02;0.17;;;0.17;;
38123;SDS011;23934;47.998;9.832;2023-11-19T02:58:37;0.00;;;0.00;;
38123;SDS011;23934;47.998;9.832;2023-11-19T03:01:04;0.00;;;0.00;;
38123;SDS011;23934;47.998;9.832;2023-11-19T03:03:38;0.63;;;0.63;;
38123;SDS011;23934;47.998;9.832;2023-11-19T03:06:05;0.17;;;0.17;;
38123;SDS011;23934;47.998;9.832;2023-11-19T03:08:32;0.00;;;0.00;;
38123;SDS011;23934;47.998;9.832;2023-11-19T03:10:58;0.10;;;0.10;;
38123;SDS011;23934;47.998;9.832;2023-11-19T03:13:24;0.00;;;0.00;;
38123;SDS011;23934;47.998;9.832;2023-11-19T03:15:50;0.55;;;0.55;;
38123;SDS011;23934;47.998;9.832;2023-11-19T03:18:16;0.00;;;0.00;;
38123;SDS011;23934;47.998;9.832;2023-11-19T03:20:42;0.50;;;0.50;;
38123;SDS011;23934;47.998;9.832;2023-11-19T03:23:08;0.25;;;0.25;;
38123;SDS011;23934;47.998;9.832;2023-11-19T03:25:35;0.00;;;0.00;;
38123;SDS011;23934;47.998;9.832;2023-11-19T03:28:02;0.05;;;0.05;;
38123;SDS011;23934;47.998;9.832;2023-11-19T03:30:28;0.08;;;0.08;;
38123;SDS011;23934;47.998;9.832;2023-11-19T03:32:55;0.00;;;0.00;;
38123;SDS011;23934;47.998;9.832;2023-11-19T03:35:21;0.00;;;0.00;;
38123;SDS011;23934;47.998;9.832;2023-11-19T03:37:47;0.17;;;0.17;;
38123;SDS011;23934;47.998;9.832;2023-11-19T03:40:13;0.00;;;0.00;;
38123;SDS011;23934;47.998;9.832;2023-11-19T03:42:39;0.30;;;0.30;;
38123;SDS011;23934;47.998;9.832;2023-11-19T03:45:06;0.00;;;0.00;;
38123;SDS011;23934;47.998;9.832;2023-11-19T03:47:33;4.03;;;1.75;;
38123;SDS011;23934;47.998;9.832;2023-11-19T03:49:59;0.00;;;0.00;;
38123;SDS011;23934;47.998;9.832;2023-11-19T03:52:25;0.00;;;0.00;;
38123;SDS011;23934;47.998;9.832;2023-11-19T03:54:54;0.00;;;0.00;;
38123;SDS011;23934;47.998;9.832;2023-11-19T03:57:21;0.00;;;0.00;;
38123;SDS011;23934;47.998;9.832;2023-11-19T03:59:47;0.20;;;0.20;;
38123;SDS011;23934;47.998;9.832;2023-11-19T04:02:14;0.00;;;0.00;;
38123;SDS011;23934;47.998;9.832;2023-11-19T04:04:40;0.00;;;0.00;;
38123;SDS011;23934;47.998;9.832;2023-11-19T04:07:06;0.13;;;0.13;;
38123;SDS011;23934;47.998;9.832;2023-11-19T04:09:32;0.00;;;0.00;;
38123;SDS011;23934;47.998;9.832;2023-11-19T04:11:59;0.17;;;0.17;;
38123;SDS011;23934;47.998;9.832;2023-11-19T04:14:25;0.17;;;0.17;;
38123;SDS011;23934;47.998;9.832;2023-11-19T04:16:51;0.00;;;0.00;;
38123;SDS011;23934;47.998;9.832;2023-11-19T04:19:18;0.00;;;0.00;;
38123;SDS011;23934;47.998;9.832;2023-11-19T04:21:44;0.00;;;0.00;;
38123;SDS011;23934;47.998;9.832;2023-11-19T04:24:10;0.47;;;0.47;;
38123;SDS011;23934;47.998;9.832;2023-11-19T04:26:42;0.00;;;0.00;;
38123;SDS011;23934;47.998;9.832;2023-11-19T04:29:11;1.00;;;0.88;;
38123;SDS011;23934;47.998;9.832;2023-11-19T04:31:37;0.20;;;0.20;;
38123;SDS011;23934;47.998;9.832;2023-11-19T04:34:04;0.63;;;0.63;;
38123;SDS011;23934;47.998;9.832;2023-11-19T04:36:30;0.30;;;0.30;;
38123;SDS011;23934;47.998;9.832;2023-11-19T04:38:56;0.00;;;0.00;;
38123;SDS011;23934;47.998;9.832;2023-11-19T04:41:22;0.10;;;0.10;;
38123;SDS011;23934;47.998;9.832;2023-11-19T04:43:48;0.03;;;0.03;;
38123;SDS011;23934;47.998;9.832;2023-11-19T04:46:14;1.50;;;1.40;;
38123;SDS011;23934;47.998;9.832;2023-11-19T04:48:40;1.20;;;0.47;;
38123;SDS011;23934;47.998;9.832;2023-11-19T04:51:06;0.00;;;0.00;;
38123;SDS011;23934;47.998;9.832;2023-11-19T04:53:34;0.00;;;0.00;;
38123;SDS011;23934;47.998;9.832;2023-11-19T04:56:00;0.20;;;0.20;;
38123;SDS011;23934;47.998;9.832;2023-11-19T04:58:28;0.00;;;0.00;;
38123;SDS011;23934;47.998;9.832;2023-11-19T05:00:55;0.80;;;0.63;;
38123;SDS011;23934;47.998;9.832;2023-11-19T05:03:21;0.00;;;0.00;;
38123;SDS011;23934;47.998;9.832;2023-11-19T05:05:48;0.00;;;0.00;;
38123;SDS011;23934;47.998;9.832;2023-11-19T05:08:14;0.32;;;0.32;;
38123;SDS011;23934;47.998;9.832;2023-11-19T05:10:40;0.63;;;0.63;;
38123;SDS011;23934;47.998;9.832;2023-11-19T05:13:05;0.20;;;0.20;;
38123;SDS011;23934;47.998;9.832;2023-11-19T05:15:31;0.63;;;0.63;;
38123;SDS011;23934;47.998;9.832;2023-11-19T05:17:58;0.52;;;0.52;;
38123;SDS011;23934;47.998;9.832;2023-11-19T05:20:24;2.08;;;1.42;;
38123;SDS011;23934;47.998;9.832;2023-11-19T05:22:50;0.00;;;0.00;;
38123;SDS011;23934;47.998;9.832;2023-11-19T05:25:16;0.20;;;0.05;;
38123;SDS011;23934;47.998;9.832;2023-11-19T05:27:45;3.65;;;1.30;;
38123;SDS011;23934;47.998;9.832;2023-11-19T05:30:11;0.00;;;0.00;;
38123;SDS011;23934;47.998;9.832;2023-11-19T05:32:37;0.00;;;0.00;;
38123;SDS011;23934;47.998;9.832;2023-11-19T05:35:03;0.00;;;0.00;;
38123;SDS011;23934;47.998;9.832;2023-11-19T05:37:29;0.08;;;0.08;;
38123;SDS011;23934;47.998;9.832;2023-11-19T05:39:55;0.00;;;0.00;;
38123;SDS011;23934;47.998;9.832;2023-11-19T05:42:21;0.15;;;0.15;;
38123;SDS011;23934;47.998;9.832;2023-11-19T05:44:47;0.75;;;0.63;;
38123;SDS011;23934;47.998;9.832;2023-11-19T05:47:13;0.00;;;0.00;;
38123;SDS011;23934;47.998;9.832;2023-11-19T05:49:38;0.00;;;0.00;;
38123;SDS011;23934;47.998;9.832;2023-11-19T05:52:04;0.00;;;0.00;;
38123;SDS011;23934;47.998;9.832;2023-11-19T05:54:32;0.00;;;0.00;;
38123;SDS011;23934;47.998;9.832;2023-11-19T05:57:03;0.10;;;0.10;;
38123;SDS011;23934;47.998;9.832;2023-11-19T05:59:29;0.00;;;0.00;;
38123;SDS011;23934;47.998;9.832;2023-11-19T06:01:55;0.00;;;0.00;;
38123;SDS011;23934;47.998;9.832;2023-11-19T06:04:23;0.00;;;0.00;;
38123;SDS011;23934;47.998;9.832;2023-11-19T06:06:49;0.00;;;0.00;;
38123;SDS011;23934;47.998;9.832;2023-11-19T06:09:15;0.05;;;0.05;;
38123;SDS011;23934;47.998;9.832;2023-11-19T06:11:43;0.05;;;0.05;;
38123;SDS011;23934;47.998;9.832;2023-11-19T06:14:09;0.00;;;0.00;;
38123;SDS011;23934;47.998;9.832;2023-11-19T06:16:36;6.28;;;2.90;;
38123;SDS011;23934;47.998;9.832;2023-11-19T06:19:04;0.10;;;0.10;;
38123;SDS011;23934;47.998;9.832;2023-11-19T06:21:30;0.00;;;0.00;;
38123;SDS011;23934;47.998;9.832;2023-11-19T06:23:56;0.05;;;0.05;;
38123;SDS011;23934;47.998;9.832;2023-11-19T06:26:23;0.00;;;0.00;;
38123;SDS011;23934;47.998;9.832;2023-11-19T06:28:49;0.88;;;0.57;;
38123;SDS011;23934;47.998;9.832;2023-11-19T06:31:15;0.22;;;0.20;;
38123;SDS011;23934;47.998;9.832;2023-11-19T06:33:41;0.08;;;0.08;;
38123;SDS011;23934;47.998;9.832;2023-11-19T06:36:08;0.03;;;0.03;;
38123;SDS011;23934;47.998;9.832;2023-11-19T06:38:34;0.17;;;0.17;;
38123;SDS011;23934;47.998;9.832;2023-11-19T06:41:00;0.52;;;0.52;;
38123;SDS011;23934;47.998;9.832;2023-11-19T06:43:26;0.00;;;0.00;;
38123;SDS011;23934;47.998;9.832;2023-11-19T06:45:53;0.13;;;0.13;;
38123;SDS011;23934;47.998;9.832;2023-11-19T06:48:19;0.13;;;0.13;;
38123;SDS011;23934;47.998;9.832;2023-11-19T06:50:45;0.00;;;0.00;;
38123;SDS011;23934;47.998;9.832;2023-11-19T06:53:11;0.00;;;0.00;;
38123;SDS011;23934;47.998;9.832;2023-11-19T06:55:37;0.00;;;0.00;;
38123;SDS011;23934;47.998;9.832;2023-11-19T06:58:03;0.00;;;0.00;;
38123;SDS011;23934;47.998;9.832;2023-11-19T07:00:29;0.00;;;0.00;;
38123;SDS011;23934;47.998;9.832;2023-11-19T07:02:57;0.30;;;0.30;;
38123;SDS011;23934;47.998;9.832;2023-11-19T07:05:23;0.20;;;0.20;;
38123;SDS011;23934;47.998;9.832;2023-11-19T07:07:49;0.10;;;0.10;;
38123;SDS011;23934;47.998;9.832;2023-11-19T07:10:15;5.65;;;0.57;;
38123;SDS011;23934;47.998;9.832;2023-11-19T07:12:41;1.30;;;1.20;;
38123;SDS011;23934;47.998;9.832;2023-11-19T07:15:07;0.10;;;0.10;;
38123;SDS011;23934;47.998;9.832;2023-11-19T07:17:38;1.58;;;0.98;;
38123;SDS011;23934;47.998;9.832;2023-11-19T07:20:05;0.98;;;0.98;;
38123;SDS011;23934;47.998;9.832;2023-11-19T07:22:31;0.57;;;0.57;;
38123;SDS011;23934;47.998;9.832;2023-11-19T07:24:57;1.08;;;0.93;;
38123;SDS011;23934;47.998;9.832;2023-11-19T07:27:23;0.35;;;0.35;;
38123;SDS011;23934;47.998;9.832;2023-11-19T07:29:49;1.52;;;1.42;;
38123;SDS011;23934;47.998;9.832;2023-11-19T07:32:16;7.30;;;4.13;;
38123;SDS011;23934;47.998;9.832;2023-11-19T07:34:42;0.50;;;0.50;;
38123;SDS011;23934;47.998;9.832;2023-11-19T07:37:08;4.13;;;1.17;;
38123;SDS011;23934;47.998;9.832;2023-11-19T07:39:34;3.05;;;2.75;;
38123;SDS011;23934;47.998;9.832;2023-11-19T07:42:01;0.00;;;0.00;;
38123;SDS011;23934;47.998;9.832;2023-11-19T07:44:27;0.08;;;0.08;;
38123;SDS011;23934;47.998;9.832;2023-11-19T07:46:53;0.15;;;0.15;;
38123;SDS011;23934;47.998;9.832;2023-11-19T07:49:19;0.20;;;0.20;;
38123;SDS011;23934;47.998;9.832;2023-11-19T07:51:45;0.00;;;0.00;;
38123;SDS011;23934;47.998;9.832;2023-11-19T07:54:11;0.20;;;0.20;;
38123;SDS011;23934;47.998;9.832;2023-11-19T07:56:37;0.10;;;0.10;;
38123;SDS011;23934;47.998;9.832;2023-11-19T07:59:03;0.10;;;0.10;;
38123;SDS011;23934;47.998;9.832;2023-11-19T08:01:29;0.00;;;0.00;;
38123;SDS011;23934;47.998;9.832;2023-11-19T08:03:55;0.52;;;0.52;;
38123;SDS011;23934;47.998;9.832;2023-11-19T08:06:21;0.00;;;0.00;;
38123;SDS011;23934;47.998;9.832;2023-11-19T08:08:47;0.10;;;0.10;;
38123;SDS011;23934;47.998;9.832;2023-11-19T08:11:13;0.00;;;0.00;;
38123;SDS011;23934;47.998;9.832;2023-11-19T08:13:40;0.20;;;0.20;;
38123;SDS011;23934;47.998;9.832;2023-11-19T08:16:07;0.00;;;0.00;;
38123;SDS011;23934;47.998;9.832;2023-11-19T08:18:33;0.30;;;0.30;;
38123;SDS011;23934;47.998;9.832;2023-11-19T08:20:58;0.00;;;0.00;;
38123;SDS011;23934;47.998;9.832;2023-11-19T08:23:25;0.00;;;0.00;;
38123;SDS011;23934;47.998;9.832;2023-11-19T08:25:53;0.45;;;0.45;;
38123;SDS011;23934;47.998;9.832;2023-11-19T08:28:19;0.10;;;0.10;;
38123;SDS011;23934;47.998;9.832;2023-11-19T08:30:45;0.10;;;0.10;;
38123;SDS011;23934;47.998;9.832;2023-11-19T08:33:11;2.05;;;1.55;;
38123;SDS011;23934;47.998;9.832;2023-11-19T08:35:37;1.02;;;0.63;;
38123;SDS011;23934;47.998;9.832;2023-11-19T08:38:03;3.85;;;2.08;;
38123;SDS011;23934;47.998;9.832;2023-11-19T08:40:29;8.75;;;3.45;;
38123;SDS011;23934;47.998;9.832;2023-11-19T08:42:55;8.20;;;4.25;;
38123;SDS011;23934;47.998;9.832;2023-11-19T08:45:21;5.15;;;2.30;;
38123;SDS011;23934;47.998;9.832;2023-11-19T08:47:47;4.47;;;2.42;;
38123;SDS011;23934;47.998;9.832;2023-11-19T08:50:13;8.40;;;3.45;;
38123;SDS011;23934;47.998;9.832;2023-11-19T08:52:39;8.23;;;3.78;;
38123;SDS011;23934;47.998;9.832;2023-11-19T08:55:05;6.95;;;2.80;;
38123;SDS011;23934;47.998;9.832;2023-11-19T08:57:31;13.43;;;4.13;;
38123;SDS011;23934;47.998;9.832;2023-11-19T09:00:00;6.25;;;2.63;;
38123;SDS011;23934;47.998;9.832;2023-11-19T09:02:28;10.35;;;2.97;;
38123;SDS011;23934;47.998;9.832;2023-11-19T09:04:54;2.92;;;1.88;;
38123;SDS011;23934;47.998;9.832;2023-11-19T09:07:20;4.80;;;2.33;;
38123;SDS011;23934;47.998;9.832;2023-11-19T09:09:46;5.13;;;2.05;;
38123;SDS011;23934;47.998;9.832;2023-11-19T09:12:12;9.07;;;2.53;;
38123;SDS011;23934;47.998;9.832;2023-11-19T09:14:39;4.30;;;2.40;;
38123;SDS011;23934;47.998;9.832;2023-11-19T09:17:05;4.50;;;2.35;;
38123;SDS011;23934;47.998;9.832;2023-11-19T09:19:32;2.53;;;1.63;;
38123;SDS011;23934;47.998;9.832;2023-11-19T09:22:00;5.57;;;2.58;;
38123;SDS011;23934;47.998;9.832;2023-11-19T09:24:27;2.80;;;1.90;;
38123;SDS011;23934;47.998;9.832;2023-11-19T09:26:53;1.75;;;1.17;;
38123;SDS011;23934;47.998;9.832;2023-11-19T09:29:21;2.35;;;1.40;;
38123;SDS011;23934;47.998;9.832;2023-11-19T09:31:47;3.17;;;1.88;;
38123;SDS011;23934;47.998;9.832;2023-11-19T09:34:13;17.55;;;6.20;;
38123;SDS011;23934;47.998;9.832;2023-11-19T09:36:39;14.25;;;5.50;;
38123;SDS011;23934;47.998;9.832;2023-11-19T09:39:08;6.13;;;2.45;;
38123;SDS011;23934;47.998;9.832;2023-11-19T09:41:34;3.42;;;1.92;;
38123;SDS011;23934;47.998;9.832;2023-11-19T09:44:00;4.35;;;1.75;;
38123;SDS011;23934;47.998;9.832;2023-11-19T09:46:26;4.72;;;2.47;;
38123;SDS011;23934;47.998;9.832;2023-11-19T09:48:54;3.85;;;2.38;;
38123;SDS011;23934;47.998;9.832;2023-11-19T09:51:20;12.82;;;4.00;;
38123;SDS011;23934;47.998;9.832;2023-11-19T09:53:47;2.03;;;1.40;;
38123;SDS011;23934;47.998;9.832;2023-11-19T09:56:14;4.40;;;1.48;;
38123;SDS011;23934;47.998;9.832;2023-11-19T09:58:41;5.05;;;1.38;;
38123;SDS011;23934;47.998;9.832;2023-11-19T10:01:07;3.67;;;1.80;;
38123;SDS011;23934;47.998;9.832;2023-11-19T10:03:37;2.10;;;1.55;;
38123;SDS011;23934;47.998;9.832;2023-11-19T10:06:06;2.95;;;1.63;;
38123;SDS011;23934;47.998;9.832;2023-11-19T10:08:32;3.90;;;1.77;;
38123;SDS011;23934;47.998;9.832;2023-11-19T10:10:58;6.30;;;2.30;;
38123;SDS011;23934;47.998;9.832;2023-11-19T10:13:30;1.65;;;1.35;;
38123;SDS011;23934;47.998;9.832;2023-11-19T10:15:56;3.88;;;1.63;;
38123;SDS011;23934;47.998;9.832;2023-11-19T10:18:26;3.20;;;1.88;;
38123;SDS011;23934;47.998;9.832;2023-11-19T10:20:52;2.53;;;1.38;;
38123;SDS011;23934;47.998;9.832;2023-11-19T10:23:19;3.00;;;1.30;;
38123;SDS011;23934;47.998;9.832;2023-11-19T10:25:45;3.72;;;2.05;;
38123;SDS011;23934;47.998;9.832;2023-11-19T10:28:11;2.13;;;1.17;;
38123;SDS011;23934;47.998;9.832;2023-11-19T10:30:41;1.42;;;1.00;;
38123;SDS011;23934;47.998;9.832;2023-11-19T10:33:08;2.50;;;1.20;;
38123;SDS011;23934;47.998;9.832;2023-11-19T10:35:35;2.90;;;1.40;;
38123;SDS011;23934;47.998;9.832;2023-11-19T10:38:01;3.85;;;1.77;;
38123;SDS011;23934;47.998;9.832;2023-11-19T10:40:39;4.50;;;1.73;;
38123;SDS011;23934;47.998;9.832;2023-11-19T10:43:05;3.92;;;1.88;;
38123;SDS011;23934;47.998;9.832;2023-11-19T10:45:32;1.90;;;1.35;;
38123;SDS011;23934;47.998;9.832;2023-11-19T10:47:58;2.40;;;1.50;;
38123;SDS011;23934;47.998;9.832;2023-11-19T10:50:25;3.22;;;1.13;;
38123;SDS011;23934;47.998;9.832;2023-11-19T10:52:52;2.65;;;1.17;;
38123;SDS011;23934;47.998;9.832;2023-11-19T10:55:21;1.60;;;0.82;;
38123;SDS011;23934;47.998;9.832;2023-11-19T10:57:52;2.40;;;0.85;;
38123;SDS011;23934;47.998;9.832;2023-11-19T11:00:18;2.22;;;1.15;;
38123;SDS011;23934;47.998;9.832;2023-11-19T11:02:45;1.67;;;1.02;;
38123;SDS011;23934;47.998;9.832;2023-11-19T11:05:12;1.08;;;0.88;;
38123;SDS011;23934;47.998;9.832;2023-11-19T11:07:40;2.63;;;1.15;;
38123;SDS011;23934;47.998;9.832;2023-11-19T11:10:06;1.45;;;0.65;;
38123;SDS011;23934;47.998;9.832;2023-11-19T11:12:37;1.88;;;1.05;;
38123;SDS011;23934;47.998;9.832;2023-11-19T11:15:04;1.25;;;0.98;;
38123;SDS011;23934;47.998;9.832;2023-11-19T11:17:31;1.33;;;0.70;;
38123;SDS011;23934;47.998;9.832;2023-11-19T11:19:57;0.98;;;0.82;;
38123;SDS011;23934;47.998;9.832;2023-11-19T11:22:23;2.05;;;1.10;;
38123;SDS011;23934;47.998;9.832;2023-11-19T11:24:54;7.05;;;3.40;;
38123;SDS011;23934;47.998;9.832;2023-11-19T11:40:17;2.80;;;1.25;;
38123;SDS011;23934;47.998;9.832;2023-11-19T11:42:46;3.60;;;1.10;;
38123;SDS011;23934;47.998;9.832;2023-11-19T11:45:13;4.93;;;2.47;;
38123;SDS011;23934;47.998;9.832;2023-11-19T11:50:15;1.17;;;0.82;;
38123;SDS011;23934;47.998;9.832;2023-11-19T11:55:35;18.23;;;6.25;;
38123;SDS011;23934;47.998;9.832;2023-11-19T11:58:01;34.58;;;12.02;;
38123;SDS011;23934;47.998;9.832;2023-11-19T12:00:31;1.63;;;1.35;;
38123;SDS011;23934;47.998;9.832;2023-11-19T12:02:58;0.80;;;0.70;;
38123;SDS011;23934;47.998;9.832;2023-11-19T12:05:25;1.45;;;1.10;;
38123;SDS011;23934;47.998;9.832;2023-11-19T12:07:54;2.50;;;1.05;;
38123;SDS011;23934;47.998;9.832;2023-11-19T12:10:20;0.63;;;0.50;;
38123;SDS011;23934;47.998;9.832;2023-11-19T12:12:52;1.10;;;0.75;;
38123;SDS011;23934;47.998;9.832;2023-11-19T12:15:18;3.85;;;1.75;;
38123;SDS011;23934;47.998;9.832;2023-11-19T12:17:49;2.08;;;1.25;;
38123;SDS011;23934;47.998;9.832;2023-11-19T12:20:16;1.73;;;1.15;;
38123;SDS011;23934;47.998;9.832;2023-11-19T12:22:43;1.60;;;1.05;;
38123;SDS011;23934;47.998;9.832;2023-11-19T12:25:10;1.45;;;1.00;;
38123;SDS011;23934;47.998;9.832;2023-11-19T12:27:37;0.47;;;0.43;;
38123;SDS011;23934;47.998;9.832;2023-11-19T12:30:05;1.25;;;0.68;;
38123;SDS011;23934;47.998;9.832;2023-11-19T12:32:40;1.67;;;1.10;;
38123;SDS011;23934;47.998;9.832;2023-11-19T12:35:07;1.25;;;0.68;;
38123;SDS011;23934;47.998;9.832;2023-11-19T12:37:38;1.77;;;0.98;;
38123;SDS011;23934;47.998;9.832;2023-11-19T12:40:10;2.15;;;0.75;;
38123;SDS011;23934;47.998;9.832;2023-11-19T12:42:36;1.67;;;0.77;;
38123;SDS011;23934;47.998;9.832;2023-11-19T12:45:03;0.85;;;0.60;;
38123;SDS011;23934;47.998;9.832;2023-11-19T12:47:29;0.73;;;0.70;;
38123;SDS011;23934;47.998;9.832;2023-11-19T12:49:58;1.67;;;1.25;;
38123;SDS011;23934;47.998;9.832;2023-11-19T12:52:24;2.97;;;1.17;;
38123;SDS011;23934;47.998;9.832;2023-11-19T12:54:50;0.95;;;0.70;;
38123;SDS011;23934;47.998;9.832;2023-11-19T12:57:17;1.40;;;0.88;;
38123;SDS011;23934;47.998;9.832;2023-11-19T12:59:54;0.95;;;0.50;;
38123;SDS011;23934;47.998;9.832;2023-11-19T13:02:20;3.22;;;1.17;;
38123;SDS011;23934;47.998;9.832;2023-11-19T13:04:46;0.75;;;0.65;;
38123;SDS011;23934;47.998;9.832;2023-11-19T13:07:12;1.17;;;0.55;;
38123;SDS011;23934;47.998;9.832;2023-11-19T13:09:38;1.02;;;0.47;;
38123;SDS011;23934;47.998;9.832;2023-11-19T13:12:14;1.40;;;0.63;;
38123;SDS011;23934;47.998;9.832;2023-11-19T13:14:40;0.52;;;0.38;;
38123;SDS011;23934;47.998;9.832;2023-11-19T13:17:14;0.50;;;0.50;;
38123;SDS011;23934;47.998;9.832;2023-11-19T13:19:40;1.08;;;0.60;;
38123;SDS011;23934;47.998;9.832;2023-11-19T13:22:06;4.45;;;0.68;;
38123;SDS011;23934;47.998;9.832;2023-11-19T13:24:32;0.40;;;0.40;;
38123;SDS011;23934;47.998;9.832;2023-11-19T13:26:58;0.85;;;0.32;;
38123;SDS011;23934;47.998;9.832;2023-11-19T13:29:24;0.38;;;0.38;;
38123;SDS011;23934;47.998;9.832;2023-11-19T13:31:50;0.98;;;0.70;;
38123;SDS011;23934;47.998;9.832;2023-11-19T13:34:16;1.25;;;0.88;;
38123;SDS011;23934;47.998;9.832;2023-11-19T13:36:41;1.77;;;0.93;;
38123;SDS011;23934;47.998;9.832;2023-11-19T13:39:07;0.80;;;0.52;;
38123;SDS011;23934;47.998;9.832;2023-11-19T13:41:33;1.52;;;0.70;;
38123;SDS011;23934;47.998;9.832;2023-11-19T13:43:59;1.40;;;0.73;;
38123;SDS011;23934;47.998;9.832;2023-11-19T13:46:26;3.33;;;1.60;;
38123;SDS011;23934;47.998;9.832;2023-11-19T13:48:52;22.75;;;6.97;;
38123;SDS011;23934;47.998;9.832;2023-11-19T13:51:17;38.90;;;13.00;;
38123;SDS011;23934;47.998;9.832;2023-11-19T13:53:44;0.93;;;0.80;;
38123;SDS011;23934;47.998;9.832;2023-11-19T13:56:10;0.65;;;0.50;;
38123;SDS011;23934;47.998;9.832;2023-11-19T13:58:36;1.67;;;0.70;;
38123;SDS011;23934;47.998;9.832;2023-11-19T14:01:02;1.77;;;0.90;;
38123;SDS011;23934;47.998;9.832;2023-11-19T14:03:28;1.15;;;0.57;;
38123;SDS011;23934;47.998;9.832;2023-11-19T14:05:54;1.55;;;0.77;;
38123;SDS011;23934;47.998;9.832;2023-11-19T14:08:20;1.48;;;0.90;;
38123;SDS011;23934;47.998;9.832;2023-11-19T14:10:46;1.55;;;0.70;;
38123;SDS011;23934;47.998;9.832;2023-11-19T14:13:12;1.48;;;0.75;;
38123;SDS011;23934;47.998;9.832;2023-11-19T14:15:40;1.15;;;0.90;;
38123;SDS011;23934;47.998;9.832;2023-11-19T14:18:07;0.40;;;0.40;;
38123;SDS011;23934;47.998;9.832;2023-11-19T14:20:33;0.82;;;0.60;;
38123;SDS011;23934;47.998;9.832;2023-11-19T14:23:00;2.30;;;0.77;;
38123;SDS011;23934;47.998;9.832;2023-11-19T14:25:27;0.45;;;0.40;;
38123;SDS011;23934;47.998;9.832;2023-11-19T14:27:53;0.47;;;0.40;;
38123;SDS011;23934;47.998;9.832;2023-11-19T14:30:19;0.82;;;0.60;;
38123;SDS011;23934;47.998;9.832;2023-11-19T14:32:45;1.33;;;0.50;;
38123;SDS011;23934;47.998;9.832;2023-11-19T14:35:12;0.98;;;0.52;;
38123;SDS011;23934;47.998;9.832;2023-11-19T14:37:38;1.38;;;0.57;;
38123;SDS011;23934;47.998;9.832;2023-11-19T14:40:04;0.35;;;0.30;;
38123;SDS011;23934;47.998;9.832;2023-11-19T14:42:32;1.50;;;0.63;;
38123;SDS011;23934;47.998;9.832;2023-11-19T14:44:58;0.60;;;0.57;;
38123;SDS011;23934;47.998;9.832;2023-11-19T14:47:24;1.35;;;0.77;;
38123;SDS011;23934;47.998;9.832;2023-11-19T14:49:50;0.68;;;0.40;;
38123;SDS011;23934;47.998;9.832;2023-11-19T14:52:16;3.58;;;0.73;;
38123;SDS011;23934;47.998;9.832;2023-11-19T14:54:42;2.35;;;1.08;;
38123;SDS011;23934;47.998;9.832;2023-11-19T14:57:08;0.80;;;0.43;;
38123;SDS011;23934;47.998;9.832;2023-11-19T14:59:34;1.20;;;0.73;;
38123;SDS011;23934;47.998;9.832;2023-11-19T15:02:00;0.63;;;0.50;;